• Join FlightAware (Why Join?)
  • Login
  • US Flag 
05:18AM EST


 

Airport Tracker/Info


-or-


 

Live Flight TrackerFlight Track Log ✈ GTI192 ✈ 25-Apr-2013 ✈ KTOL - KCVG

Flight Track Log - Related Links

Times and Time Zones

All times are in EDT time to prevent confusion due to time zone crossing. See the GTI192 flight status page for this flight to view local times or setup timezone preferences in your user account.

Time Position Orientation Groundspeed Altitude Reporting Facility
EDT Latitude Longitude Course Direction KTS MPH feet Rate Location/Type
01:12AM 41.5714 -83.8528 256° West 163 188 2,500  Level Cleveland Center
01:13AM 41.5286 -83.8897 213° Southwest 188 216 5,400 3,240 Climbing Cleveland Center
01:14AM 41.4686 -83.9419 213° Southwest 217 250 9,000 3,240 Climbing Cleveland Center
01:15AM 41.4022 -83.9994 213° Southwest 257 296 11,900 2,220 Climbing Cleveland Center
01:16AM 41.3239 -84.0478 205° Southwest 296 341 13,500 960 Climbing Cleveland Center
01:17AM 41.2314 -84.1275 256° West  Level FlightAware Approximate
01:17AM 41.2125 -84.0694 188° South 354 407 13,900  Level Cleveland Center
01:18AM 41.1083 -84.1003 193° South 375 432 14,000  Climbing Indianapolis Center
01:19AM 41.0064 -84.1308 193° South 377 434 13,900 -60 Descending Indianapolis Center
01:20AM 40.9022 -84.1606 192° South 379 436 13,900  Level Indianapolis Center
01:21AM 40.8003 -84.1892 192° South 373 429 13,900  Level Indianapolis Center
01:22AM 40.6981 -84.2183 192° South 373 429 13,900  Level Indianapolis Center
01:23AM 40.5947 -84.2464 192° South 376 433 13,900  Level Indianapolis Center
01:24AM 40.4925 -84.2750 192° South 375 432 14,000  Climbing Indianapolis Center
01:25AM 40.3889 -84.3036 192° South 377 434 14,000  Level Indianapolis Center
01:26AM 40.2867 -84.3325 192° South 375 432 14,000  Level Indianapolis Center
01:27AM 40.1825 -84.3603 192° South 378 435 14,000  Level Indianapolis Center
01:28AM 40.0786 -84.3900 192° South 380 437 14,000  Level Indianapolis Center
01:29AM 39.9750 -84.4181 192° South 378 435 14,000 -420 Level Indianapolis Center
01:30AM 39.8697 -84.4475 192° South 384 442 13,200 -1,140 Descending Indianapolis Center
01:31AM 39.7661 -84.4750 192° South 380 437 11,800 -1,020 Descending Indianapolis Center
01:32AM 39.6719 -84.4994 191° South 356 410 11,200 -420 Descending Indianapolis Center
01:33AM 39.5875 -84.5211 191° South 317 365 11,000 -120 Descending Indianapolis Center
01:34AM 39.5092 -84.5558 199° South 298 343 11,000 -600 Level Indianapolis Center
01:35AM 39.4494 -84.6106 215° Southwest 265 305 9,800 -1,260 Descending Indianapolis Center
01:36AM 39.3906 -84.6636 215° Southwest 258 297 8,500 -1,500 Descending Indianapolis Center
01:37AM 39.3333 -84.7167 216° Southwest 248 285 7,000 -1,680 Descending Cincinnati TRACON
01:38AM 39.2833 -84.7500 207° Southwest 231 266 5,300 -1,500 Descending Cincinnati TRACON
01:39AM 39.2167 -84.8167 218° Southwest 217 250 3,900 -780 Descending Cincinnati TRACON
01:40AM 39.1667 -84.8500 207° Southwest 221 254 3,600 -240 Descending Cincinnati TRACON
01:41AM 39.1000 -84.8333 169° South 190 219 3,500 -240 Descending Cincinnati TRACON
01:42AM 39.0667 -84.8333 180° South 160 184 3,200 -660 Descending Cincinnati TRACON
01:43AM 39.0500 -84.7833 113° Southeast 159 183 2,300 -900 Descending Cincinnati TRACON
01:44AM 39.0500 -84.7333 90° East 141 162 1,500 -840 Descending Cincinnati TRACON